首页
METAR-TAF:

METAR-TAF

机场 :

South St. Paul Municipal Airport (Richard E. Fleming Field)

South St. Paul, 明尼蘇達州, 美国

纬度: 44-51-26N, 经度: 093-01-58W, 海拔: 250米

当前天气观测

该预报发布于24分钟前的14:16 UTC
静风
温度 -16°C
湿度 84%
气压 1038 hPa
能見度: 11.3公里
天空无云

METAR: KSGS 201416Z AUTO 00000KT 7SM CLR M16/M18 A3066 RMK AO2 T11641184

时间: 08:40 (14:40 UTC)


TAF: 丢失

超过4000个机场的气象观测和天气预报(METAR&TAF报告)。

可查询的气象台以黄色和红色小点在地图上表示。

将鼠标移到小点上方,可查看气象台名称。

然后点击查看天气观测和预报。

如需切换地图:点击带黑十字的绿色按钮放大地图;点击带横线的绿色按钮缩小地图;或者点击绿色箭头查看邻近地区的地图。


METAR-TAF: